Time;durP1;ratioP1;P1;durP2;ratioP2;P2;SDS_P1;SDS_P2;PMS_P1;PMS_P2;Temp;Humidity;BMP_temperature;BMP_pressure;BME280_temperature;BME280_humidity;BME280_pressure;Samples;Min_cycle;Max_cycle;Signal;HPM_P1;HPM_P2
2022/10/24 00:00:19;;;;;;;5.10;1.70;;;15.40;99.90;;;;;;5052415;28;20037;-46
2022/10/24 00:02:44;;;;;;;5.20;1.60;;;15.60;99.90;;;;;;5051730;28;20472;-48
2022/10/24 00:05:12;;;;;;;4.80;1.65;;;15.60;99.90;;;;;;5052144;28;20036;-47
2022/10/24 00:07:38;;;;;;;4.78;1.50;;;15.60;99.90;;;;;;5051708;28;20037;-45
2022/10/24 00:10:05;;;;;;;4.97;1.65;;;15.50;99.90;;;;;;5050241;28;20052;-47
2022/10/24 00:12:30;;;;;;;5.50;1.52;;;15.60;99.90;;;;;;5051868;28;20041;-46
2022/10/24 00:14:56;;;;;;;5.55;1.65;;;15.50;99.90;;;;;;5049825;28;20041;-45
2022/10/24 00:17:22;;;;;;;8.55;1.83;;;15.50;99.90;;;;;;5051845;28;20033;-46
2022/10/24 00:19:47;;;;;;;5.75;1.88;;;15.40;99.90;;;;;;5052025;28;20126;-44
2022/10/24 00:22:13;;;;;;;5.70;1.80;;;15.50;99.90;;;;;;5051491;28;20047;-44
2022/10/24 00:24:39;;;;;;;5.10;1.50;;;15.50;99.90;;;;;;5051880;28;20036;-46
2022/10/24 00:27:04;;;;;;;4.80;1.95;;;15.50;99.90;;;;;;5051861;28;20124;-46
2022/10/24 00:29:30;;;;;;;4.60;1.95;;;15.50;99.90;;;;;;5051753;28;20059;-44
2022/10/24 00:31:56;;;;;;;5.57;1.75;;;15.40;99.90;;;;;;5049461;28;20045;-46
2022/10/24 00:34:21;;;;;;;4.45;1.60;;;15.50;99.90;;;;;;5050360;28;20032;-44
2022/10/24 00:36:47;;;;;;;8.30;1.88;;;15.50;99.90;;;;;;5051486;28;20120;-45
2022/10/24 00:39:13;;;;;;;6.07;1.60;;;15.40;99.90;;;;;;5049837;28;20087;-45
2022/10/24 00:41:41;;;;;;;8.40;2.00;;;15.50;99.90;;;;;;5051362;28;20103;-47
2022/10/24 00:44:20;;;;;;;8.43;2.13;;;15.40;99.90;;;;;;5050182;28;20102;-44
2022/10/24 00:46:57;;;;;;;4.47;2.00;;;15.50;99.90;;;;;;5051258;28;20084;-47
2022/10/24 00:49:30;;;;;;;6.97;2.08;;;15.50;99.90;;;;;;5049829;28;20130;-47
2022/10/24 00:52:01;;;;;;;6.15;2.55;;;15.60;99.90;;;;;;5051432;28;20037;-47
2022/10/24 00:54:28;;;;;;;6.18;2.58;;;15.60;99.90;;;;;;5051041;28;20388;-46
2022/10/24 00:57:19;;;;;;;7.60;2.55;;;15.60;99.90;;;;;;5051192;28;20049;-48
2022/10/24 00:59:50;;;;;;;6.70;2.20;;;15.60;99.90;;;;;;5050729;28;20037;-47
2022/10/24 01:02:15;;;;;;;7.82;2.53;;;15.70;99.90;;;;;;5051074;28;20045;-48
2022/10/24 01:04:43;;;;;;;8.32;2.75;;;15.60;99.90;;;;;;5050744;28;20128;-44
2022/10/24 01:07:12;;;;;;;10.40;2.97;;;15.70;99.90;;;;;;5050736;28;20037;-44
2022/10/24 01:09:55;;;;;;;7.53;2.60;;;16.40;99.90;;;;;;5050420;28;20040;-45
2022/10/24 01:12:42;;;;;;;7.50;2.70;;;15.60;99.90;;;;;;5050319;28;20089;-46
2022/10/24 01:15:16;;;;;;;8.70;3.28;;;15.70;99.90;;;;;;5050463;28;20090;-47
2022/10/24 01:17:47;;;;;;;6.32;2.53;;;15.50;99.90;;;;;;5047992;28;20106;-46
2022/10/24 01:20:32;;;;;;;6.25;2.97;;;15.60;99.90;;;;;;5050823;28;20060;-45
2022/10/24 01:23:32;;;;;;;8.60;3.00;;;15.50;99.90;;;;;;5049660;28;20366;-45
2022/10/24 01:26:18;;;;;;;7.07;2.92;;;15.50;99.90;;;;;;5050139;28;20041;-46
2022/10/24 01:28:59;;;;;;;7.13;2.90;;;15.60;99.90;;;;;;5050525;28;20048;-45
2022/10/24 01:31:48;;;;;;;7.80;2.83;;;15.60;99.90;;;;;;5050399;28;20040;-47
2022/10/24 01:34:25;;;;;;;8.23;2.90;;;15.70;99.90;;;;;;5050464;28;20129;-47
2022/10/24 01:37:20;;;;;;;5.97;2.70;;;15.70;99.90;;;;;;5050539;28;20500;-45
2022/10/24 01:39:49;;;;;;;10.20;2.78;;;15.60;99.90;;;;;;5049454;28;20053;-44
2022/10/24 01:42:19;;;;;;;12.13;3.15;;;15.70;99.90;;;;;;5050382;28;20032;-45
2022/10/24 01:44:49;;;;;;;7.00;2.35;;;15.80;99.90;;;;;;5050073;28;20044;-45
2022/10/24 01:47:30;;;;;;;10.77;2.50;;;15.80;99.90;;;;;;5049926;28;20056;-46
2022/10/24 01:50:06;;;;;;;7.22;2.63;;;15.80;99.90;;;;;;5049091;28;20040;-44
2022/10/24 01:52:35;;;;;;;7.22;3.00;;;15.80;99.90;;;;;;5048982;28;20480;-46
2022/10/24 01:55:01;;;;;;;6.05;2.45;;;15.70;99.90;;;;;;5050026;28;20059;-47
2022/10/24 01:57:32;;;;;;;9.85;2.40;;;15.60;99.90;;;;;;5049823;28;20040;-46
2022/10/24 01:59:57;;;;;;;7.70;2.08;;;15.60;99.90;;;;;;5031826;28;20037;-45
2022/10/24 02:02:30;;;;;;;5.45;2.30;;;15.50;99.90;;;;;;5047920;28;20063;-45
2022/10/24 02:05:31;;;;;;;6.95;2.97;;;15.50;99.90;;;;;;5049898;28;20033;-49
2022/10/24 02:08:03;;;;;;;6.80;2.20;;;15.50;99.90;;;;;;5046944;28;20048;-47
2022/10/24 02:10:49;;;;;;;6.63;2.28;;;15.50;99.90;;;;;;5049285;28;20041;-46
2022/10/24 02:13:31;;;;;;;7.68;2.30;;;15.50;99.90;;;;;;5049326;28;20045;-48
2022/10/24 02:15:59;;;;;;;8.38;2.35;;;15.50;99.90;;;;;;5049810;28;20067;-46
2022/10/24 02:18:27;;;;;;;8.68;2.58;;;15.30;99.90;;;;;;5049568;28;20033;-47
2022/10/24 02:21:03;;;;;;;6.43;2.08;;;15.50;99.90;;;;;;5049780;28;20045;-46
2022/10/24 02:23:50;;;;;;;8.65;2.42;;;15.50;99.90;;;;;;5048958;28;20500;-45
2022/10/24 02:26:28;;;;;;;6.72;2.20;;;15.40;99.90;;;;;;5049441;28;20040;-47
2022/10/24 02:28:59;;;;;;;7.10;2.85;;;15.50;99.90;;;;;;5048602;28;20041;-47
2022/10/24 02:31:31;;;;;;;6.93;2.10;;;15.40;99.90;;;;;;5049564;28;20052;-48
2022/10/24 02:33:59;;;;;;;7.65;2.67;;;15.50;99.90;;;;;;5047828;28;20041;-48
2022/10/24 02:36:28;;;;;;;7.13;3.15;;;15.50;99.90;;;;;;5049211;28;20072;-45
2022/10/24 02:38:55;;;;;;;8.43;2.45;;;15.40;99.90;;;;;;5048891;28;20135;-44
2022/10/24 02:41:30;;;;;;;6.00;2.28;;;15.30;99.90;;;;;;5049483;28;20083;-45
2022/10/24 02:43:58;;;;;;;9.13;2.20;;;15.30;99.90;;;;;;5047490;28;20045;-45
2022/10/24 02:46:24;;;;;;;6.63;2.45;;;15.30;99.90;;;;;;5047532;28;21046;-47
2022/10/24 02:48:56;;;;;;;9.20;2.42;;;15.30;99.90;;;;;;5047356;28;20121;-47
2022/10/24 02:51:26;;;;;;;6.65;2.70;;;15.30;99.90;;;;;;5049293;28;20045;-45
2022/10/24 02:53:52;;;;;;;5.47;2.17;;;15.30;99.90;;;;;;5049196;28;20155;-49
2022/10/24 02:56:18;;;;;;;7.93;2.40;;;15.20;99.90;;;;;;5049598;28;20473;-47
2022/10/24 02:58:44;;;;;;;9.80;2.63;;;15.10;99.90;;;;;;5049041;28;20079;-48
2022/10/24 03:01:09;;;;;;;12.45;2.92;;;15.10;99.90;;;;;;5027058;28;20125;-47
2022/10/24 03:03:35;;;;;;;6.60;2.72;;;15.10;99.90;;;;;;5049370;28;20044;-46
2022/10/24 03:06:01;;;;;;;7.57;2.05;;;15.00;99.90;;;;;;5047748;28;20135;-47
2022/10/24 03:08:26;;;;;;;6.78;2.45;;;15.00;99.90;;;;;;5049118;28;20252;-47
2022/10/24 03:10:52;;;;;;;9.52;2.95;;;15.10;99.90;;;;;;5047952;28;20041;-46
2022/10/24 03:13:18;;;;;;;8.77;2.45;;;15.10;99.90;;;;;;5049306;28;20040;-49
2022/10/24 03:15:43;;;;;;;8.18;2.78;;;15.10;99.90;;;;;;5049168;28;20091;-46
2022/10/24 03:18:09;;;;;;;9.25;2.83;;;15.20;99.90;;;;;;5047944;28;20388;-45
2022/10/24 03:20:35;;;;;;;6.28;2.53;;;15.10;99.90;;;;;;5049139;28;20099;-45
2022/10/24 03:23:01;;;;;;;7.60;2.47;;;15.20;99.90;;;;;;5048989;28;20068;-45
2022/10/24 03:25:27;;;;;;;6.72;2.40;;;15.30;99.90;;;;;;5049690;28;20077;-46
2022/10/24 03:27:52;;;;;;;7.65;2.60;;;15.30;99.90;;;;;;5049505;28;20044;-45
2022/10/24 03:30:18;;;;;;;9.70;2.50;;;15.30;99.90;;;;;;5048868;28;20183;-45
2022/10/24 03:32:43;;;;;;;6.28;2.60;;;15.30;99.90;;;;;;5047093;28;20403;-44
2022/10/24 03:35:09;;;;;;;7.55;2.25;;;15.30;99.90;;;;;;5048972;28;20033;-47
2022/10/24 03:37:35;;;;;;;8.80;2.45;;;15.30;99.90;;;;;;5047389;28;20484;-45
2022/10/24 03:40:01;;;;;;;6.78;2.35;;;15.30;99.90;;;;;;5048518;28;20032;-46
2022/10/24 03:42:27;;;;;;;8.70;2.10;;;15.30;99.90;;;;;;5048944;28;20103;-46
2022/10/24 03:44:52;;;;;;;10.00;2.40;;;15.30;99.90;;;;;;5048514;28;20079;-43
2022/10/24 03:47:18;;;;;;;6.00;2.15;;;15.30;99.90;;;;;;5047142;28;20080;-45
2022/10/24 03:49:44;;;;;;;8.55;2.10;;;15.30;99.90;;;;;;5049350;28;20033;-47
2022/10/24 03:52:10;;;;;;;6.60;2.45;;;15.20;99.90;;;;;;5052160;28;20045;-45
2022/10/24 03:54:37;;;;;;;7.03;2.10;;;15.30;99.90;;;;;;5052513;28;20072;-48
2022/10/24 03:57:04;;;;;;;8.35;2.22;;;15.30;99.90;;;;;;5052093;28;20044;-45
2022/10/24 03:59:30;;;;;;;8.10;1.80;;;15.20;99.90;;;;;;5052842;28;20044;-44
2022/10/24 04:01:56;;;;;;;8.05;2.00;;;15.20;99.90;;;;;;5052914;28;20523;-47
2022/10/24 04:04:22;;;;;;;8.48;2.30;;;15.20;99.90;;;;;;5052572;28;20072;-49
2022/10/24 04:06:47;;;;;;;6.90;2.08;;;15.20;99.90;;;;;;5052196;28;20096;-48
2022/10/24 04:09:13;;;;;;;7.05;2.53;;;15.10;99.90;;;;;;5051409;28;20032;-43
2022/10/24 04:11:39;;;;;;;6.57;1.98;;;15.00;99.90;;;;;;5052103;28;20041;-46
2022/10/24 04:14:04;;;;;;;10.85;2.40;;;15.00;99.90;;;;;;5051733;28;20037;-46
2022/10/24 04:16:33;;;;;;;8.63;2.13;;;15.00;99.90;;;;;;5050204;28;20540;-47
2022/10/24 04:18:59;;;;;;;7.10;2.10;;;15.00;99.90;;;;;;5050509;28;20075;-45
2022/10/24 04:21:25;;;;;;;8.20;2.22;;;14.90;99.90;;;;;;5050519;28;20433;-47
2022/10/24 04:23:50;;;;;;;6.03;2.10;;;14.80;99.90;;;;;;5051780;28;20060;-45
2022/10/24 04:26:16;;;;;;;7.00;2.10;;;14.90;99.90;;;;;;5051199;28;20120;-47
2022/10/24 04:28:42;;;;;;;6.88;2.08;;;14.90;99.90;;;;;;5052111;28;20040;-45
2022/10/24 04:31:08;;;;;;;7.38;2.20;;;14.80;99.90;;;;;;5051527;28;20546;-47
2022/10/24 04:33:35;;;;;;;7.78;2.53;;;14.80;99.90;;;;;;5051756;28;20072;-46
2022/10/24 04:36:00;;;;;;;7.72;2.20;;;14.70;99.90;;;;;;5051695;28;20044;-46
2022/10/24 04:38:26;;;;;;;5.88;1.83;;;14.70;99.90;;;;;;5049545;28;20579;-45
2022/10/24 04:40:53;;;;;;;7.38;2.05;;;14.70;99.90;;;;;;5051691;28;20048;-46
2022/10/24 04:43:20;;;;;;;8.73;2.25;;;15.30;99.90;;;;;;5051551;28;20048;-46
2022/10/24 04:45:46;;;;;;;8.32;2.22;;;14.70;99.90;;;;;;5051256;28;20036;-48
2022/10/24 04:48:12;;;;;;;7.78;1.98;;;14.60;99.90;;;;;;5051110;28;20061;-46
2022/10/24 04:50:40;;;;;;;6.97;2.13;;;14.60;99.90;;;;;;5049884;28;20094;-44
2022/10/24 04:53:06;;;;;;;6.95;1.92;;;14.60;99.90;;;;;;5051391;28;20156;-46
2022/10/24 04:55:32;;;;;;;6.25;1.90;;;14.60;99.90;;;;;;5051178;28;20524;-47
2022/10/24 04:57:58;;;;;;;7.22;2.03;;;14.50;99.90;;;;;;5050704;28;20044;-46
2022/10/24 05:00:24;;;;;;;8.18;1.70;;;14.60;99.90;;;;;;5050769;28;20049;-46
2022/10/24 05:02:50;;;;;;;9.10;1.80;;;14.60;99.90;;;;;;5048313;28;20037;-46
2022/10/24 05:05:18;;;;;;;9.23;1.63;;;14.60;99.90;;;;;;5050971;28;20087;-46
2022/10/24 05:07:44;;;;;;;6.75;1.70;;;14.60;99.90;;;;;;5050656;28;20505;-44
2022/10/24 05:10:11;;;;;;;8.55;2.08;;;14.50;99.90;;;;;;5050722;28;20028;-45
2022/10/24 05:12:37;;;;;;;7.70;2.00;;;14.50;99.90;;;;;;5051002;28;20961;-50
2022/10/24 05:15:03;;;;;;;6.30;1.98;;;14.40;99.90;;;;;;5049495;28;20128;-46
2022/10/24 05:17:29;;;;;;;6.22;1.65;;;14.50;99.90;;;;;;5050735;28;20049;-44
2022/10/24 05:19:55;;;;;;;8.18;2.08;;;14.40;99.90;;;;;;5050671;28;20087;-46
2022/10/24 05:22:20;;;;;;;6.90;1.88;;;14.40;99.90;;;;;;5050730;28;20085;-44
2022/10/24 05:24:46;;;;;;;6.88;1.85;;;14.40;99.90;;;;;;5051024;28;20044;-47
2022/10/24 05:27:11;;;;;;;9.50;2.85;;;14.50;99.90;;;;;;5050338;28;20041;-45
2022/10/24 05:29:37;;;;;;;7.80;1.98;;;14.50;99.90;;;;;;5050569;28;20119;-44
2022/10/24 05:32:03;;;;;;;6.40;1.55;;;14.50;99.90;;;;;;5050496;28;20076;-44
2022/10/24 05:34:29;;;;;;;6.00;1.67;;;14.60;99.90;;;;;;5049350;28;20044;-47
2022/10/24 05:36:55;;;;;;;6.97;1.80;;;14.70;99.90;;;;;;5049675;28;20036;-45
2022/10/24 05:39:21;;;;;;;8.50;1.70;;;14.70;99.90;;;;;;5050611;28;20049;-47
2022/10/24 05:41:47;;;;;;;8.77;1.83;;;14.70;99.90;;;;;;5050550;28;20048;-47
2022/10/24 05:44:13;;;;;;;4.70;1.40;;;14.80;99.90;;;;;;5050327;28;20049;-45
2022/10/24 05:46:39;;;;;;;6.45;1.52;;;14.80;99.90;;;;;;5048795;28;20404;-46
2022/10/24 05:49:05;;;;;;;7.72;2.10;;;14.80;99.90;;;;;;5048649;28;20053;-45
2022/10/24 05:51:31;;;;;;;6.13;1.50;;;14.90;99.90;;;;;;5048413;28;20045;-46
2022/10/24 05:53:57;;;;;;;9.50;1.80;;;14.90;99.90;;;;;;5050878;28;20041;-44
2022/10/24 05:56:23;;;;;;;8.27;1.67;;;14.90;99.90;;;;;;5050051;28;20049;-45
2022/10/24 05:58:49;;;;;;;5.00;1.63;;;14.90;99.90;;;;;;5049644;28;20044;-46
2022/10/24 06:01:15;;;;;;;8.48;1.70;;;14.90;99.90;;;;;;5049727;28;20093;-45
2022/10/24 06:03:41;;;;;;;6.90;1.50;;;14.90;99.90;;;;;;5049998;28;20155;-47
2022/10/24 06:06:08;;;;;;;6.10;1.65;;;14.90;99.90;;;;;;5049720;28;20488;-45
2022/10/24 06:08:35;;;;;;;7.88;1.85;;;14.90;99.90;;;;;;5049817;28;20086;-47
2022/10/24 06:11:01;;;;;;;7.47;1.85;;;14.90;99.90;;;;;;5049751;28;20045;-45
2022/10/24 06:13:27;;;;;;;7.72;1.58;;;14.90;99.90;;;;;;5047953;28;20040;-47
2022/10/24 06:15:52;;;;;;;4.72;1.30;;;15.00;99.90;;;;;;5049029;28;20044;-47
2022/10/24 06:18:18;;;;;;;13.98;1.95;;;14.90;99.90;;;;;;5049558;28;20084;-47
2022/10/24 06:20:44;;;;;;;9.05;1.73;;;14.90;99.90;;;;;;5049355;28;20037;-46
2022/10/24 06:23:10;;;;;;;6.25;1.42;;;14.80;99.90;;;;;;5049225;28;20040;-47
2022/10/24 06:25:35;;;;;;;7.18;1.65;;;14.90;99.90;;;;;;5049715;28;20079;-45
2022/10/24 06:28:01;;;;;;;5.88;1.52;;;14.90;99.90;;;;;;5048228;28;20393;-48
2022/10/24 06:30:27;;;;;;;5.38;1.38;;;14.80;99.90;;;;;;5048239;28;20038;-45
2022/10/24 06:32:53;;;;;;;6.32;1.60;;;14.80;99.90;;;;;;5047679;28;20048;-46
2022/10/24 06:35:18;;;;;;;5.07;1.38;;;14.90;99.90;;;;;;5037506;28;20420;-47
2022/10/24 06:37:44;;;;;;;6.03;1.45;;;14.90;99.90;;;;;;5039689;28;20075;-47
2022/10/24 06:40:10;;;;;;;8.57;1.70;;;14.90;99.90;;;;;;5039624;28;20045;-44
2022/10/24 06:42:36;;;;;;;6.93;1.60;;;15.00;99.90;;;;;;5039716;28;20510;-45
2022/10/24 06:45:02;;;;;;;6.13;1.70;;;14.90;99.90;;;;;;5039625;28;20037;-46
2022/10/24 06:47:28;;;;;;;7.63;1.85;;;14.90;99.90;;;;;;5039350;28;20059;-49
2022/10/24 06:49:53;;;;;;;7.57;1.92;;;15.00;99.90;;;;;;5040144;28;20044;-47
2022/10/24 06:52:19;;;;;;;6.47;1.90;;;15.00;99.90;;;;;;5039696;28;20029;-45
2022/10/24 06:54:44;;;;;;;7.80;1.63;;;15.10;99.90;;;;;;5045100;28;20159;-48
2022/10/24 06:57:10;;;;;;;7.65;2.10;;;15.10;99.90;;;;;;5046502;28;20043;-46
2022/10/24 06:59:36;;;;;;;6.25;1.45;;;15.10;99.90;;;;;;5046755;28;20217;-47
2022/10/24 07:02:01;;;;;;;5.95;1.50;;;15.20;99.90;;;;;;5048908;28;20153;-44
2022/10/24 07:04:27;;;;;;;5.70;1.52;;;15.20;99.90;;;;;;5049067;28;20033;-46
2022/10/24 07:06:53;;;;;;;8.38;1.88;;;15.20;99.90;;;;;;5048850;28;20052;-44
2022/10/24 07:09:18;;;;;;;5.03;1.50;;;15.30;99.90;;;;;;5048464;28;20067;-46
2022/10/24 07:11:44;;;;;;;4.95;1.35;;;15.30;99.90;;;;;;5049343;28;20033;-47
2022/10/24 07:14:11;;;;;;;7.30;1.67;;;15.30;99.90;;;;;;5048906;28;20071;-45
2022/10/24 07:16:37;;;;;;;5.28;1.50;;;15.00;99.90;;;;;;5049193;28;20048;-45
2022/10/24 07:19:04;;;;;;;6.07;1.70;;;15.30;99.90;;;;;;5049233;28;20419;-46
2022/10/24 07:21:31;;;;;;;7.55;1.60;;;15.30;99.90;;;;;;5046432;28;20797;-46
2022/10/24 07:23:58;;;;;;;5.30;1.60;;;15.30;99.90;;;;;;5049315;28;20048;-45
2022/10/24 07:26:26;;;;;;;8.10;1.45;;;15.30;99.90;;;;;;5045040;28;20045;-46
2022/10/24 07:28:54;;;;;;;8.32;1.75;;;15.30;99.90;;;;;;5046189;28;20041;-44
2022/10/24 07:31:26;;;;;;;7.53;1.90;;;15.30;99.90;;;;;;5050007;28;20080;-45
2022/10/24 07:33:52;;;;;;;4.85;1.33;;;15.30;99.90;;;;;;5044881;28;20048;-45
2022/10/24 07:36:19;;;;;;;6.03;1.40;;;15.40;99.90;;;;;;5047187;28;20041;-47
2022/10/24 07:38:46;;;;;;;7.60;1.90;;;15.40;99.90;;;;;;5044841;28;20044;-45
2022/10/24 07:41:12;;;;;;;7.68;1.75;;;15.40;99.90;;;;;;5043147;28;20115;-46
2022/10/24 07:43:38;;;;;;;8.95;1.95;;;15.40;99.90;;;;;;5042789;28;20045;-45
2022/10/24 07:46:08;;;;;;;9.05;1.60;;;15.40;99.90;;;;;;5043715;28;20049;-46
2022/10/24 07:48:34;;;;;;;7.05;1.58;;;15.50;99.90;;;;;;5048276;28;20080;-48
2022/10/24 07:51:05;;;;;;;9.40;1.65;;;15.50;99.90;;;;;;5046648;28;20123;-46
2022/10/24 07:53:30;;;;;;;7.80;1.65;;;15.60;99.90;;;;;;5047420;28;20087;-47
2022/10/24 07:55:58;;;;;;;8.52;1.52;;;15.60;99.90;;;;;;5046494;28;20431;-46
2022/10/24 07:58:24;;;;;;;8.07;1.52;;;15.60;99.90;;;;;;5044529;28;20044;-47
2022/10/24 08:00:50;;;;;;;8.25;1.75;;;15.70;99.90;;;;;;5047034;28;20040;-45
2022/10/24 08:03:15;;;;;;;6.47;1.42;;;15.70;99.90;;;;;;5050302;28;20465;-46
2022/10/24 08:05:41;;;;;;;8.82;1.63;;;15.70;99.90;;;;;;5052016;28;20040;-49
2022/10/24 08:08:08;;;;;;;9.38;2.13;;;15.70;99.90;;;;;;5047766;28;20048;-47
2022/10/24 08:10:33;;;;;;;6.15;1.63;;;15.80;99.90;;;;;;5040330;28;20060;-46
2022/10/24 08:12:59;;;;;;;6.68;1.40;;;15.80;99.90;;;;;;5041994;28;20064;-45
2022/10/24 08:15:26;;;;;;;7.55;1.83;;;15.90;99.90;;;;;;5041277;28;20492;-45
2022/10/24 08:17:53;;;;;;;8.45;1.85;;;16.00;99.90;;;;;;5043543;28;20171;-47
2022/10/24 08:20:19;;;;;;;9.77;1.60;;;16.00;99.90;;;;;;5043990;28;20485;-45
2022/10/24 08:22:45;;;;;;;6.18;1.48;;;16.10;99.90;;;;;;5037246;28;20025;-45
2022/10/24 08:25:13;;;;;;;10.63;1.73;;;16.20;99.90;;;;;;5040489;28;20404;-46
2022/10/24 08:27:39;;;;;;;8.90;1.52;;;16.20;99.90;;;;;;5038726;28;20108;-46
2022/10/24 08:30:06;;;;;;;12.25;2.10;;;16.30;99.90;;;;;;5039188;28;20036;-46
2022/10/24 08:32:32;;;;;;;6.38;1.50;;;16.30;99.90;;;;;;5041413;28;20117;-45
2022/10/24 08:34:57;;;;;;;8.80;1.65;;;16.30;99.90;;;;;;5040197;28;20050;-48
2022/10/24 08:37:23;;;;;;;9.20;1.52;;;16.30;99.90;;;;;;5039146;28;20049;-46
2022/10/24 08:39:49;;;;;;;7.78;1.75;;;16.30;99.90;;;;;;5040560;28;20049;-46
2022/10/24 08:42:16;;;;;;;9.65;1.80;;;16.30;99.90;;;;;;5040435;28;20044;-47
2022/10/24 08:44:44;;;;;;;8.68;1.70;;;16.20;99.90;;;;;;5040629;28;20116;-47
2022/10/24 08:47:32;;;;;;;7.10;1.73;;;16.30;99.90;;;;;;5039141;28;20361;-47
2022/10/24 08:50:12;;;;;;;8.63;1.73;;;16.30;99.90;;;;;;5041587;28;20512;-49
2022/10/24 08:52:47;;;;;;;8.85;1.60;;;16.30;99.90;;;;;;5040219;28;20041;-46
2022/10/24 08:55:15;;;;;;;7.63;1.40;;;16.30;99.90;;;;;;5039192;28;20049;-46
2022/10/24 08:57:46;;;;;;;7.60;1.90;;;16.30;99.90;;;;;;5040868;28;20044;-44
2022/10/24 09:00:19;;;;;;;9.68;1.77;;;16.30;99.90;;;;;;5037948;28;20570;-47
2022/10/24 09:02:58;;;;;;;9.25;1.80;;;16.30;99.90;;;;;;5036040;28;20037;-45
2022/10/24 09:05:28;;;;;;;8.02;1.67;;;16.20;99.90;;;;;;5039748;28;20040;-47
2022/10/24 09:08:02;;;;;;;7.43;1.50;;;16.20;99.90;;;;;;5039213;28;20717;-46
2022/10/24 09:10:42;;;;;;;8.70;1.50;;;16.30;99.90;;;;;;5038405;28;20029;-46
2022/10/24 09:13:13;;;;;;;6.28;1.63;;;16.30;99.90;;;;;;5038285;28;20029;-44
2022/10/24 09:15:40;;;;;;;10.60;1.80;;;16.30;99.90;;;;;;5037970;28;20108;-44
2022/10/24 09:18:33;;;;;;;6.22;1.42;;;16.40;99.90;;;;;;5039194;28;20048;-44
2022/10/24 09:21:00;;;;;;;5.68;1.40;;;16.40;99.90;;;;;;5041346;28;20496;-48
2022/10/24 09:23:26;;;;;;;9.38;1.50;;;16.50;99.90;;;;;;5040997;28;20087;-47
2022/10/24 09:25:56;;;;;;;10.00;1.80;;;16.60;99.90;;;;;;5040599;28;20047;-47
2022/10/24 09:28:22;;;;;;;5.28;1.50;;;16.60;99.90;;;;;;5038386;28;20055;-49
2022/10/24 09:30:49;;;;;;;7.20;1.65;;;16.80;99.90;;;;;;5038533;28;20116;-44
2022/10/24 09:33:27;;;;;;;8.20;1.70;;;16.90;99.90;;;;;;5040265;28;20051;-46
2022/10/24 09:35:56;;;;;;;7.93;1.90;;;16.90;99.90;;;;;;5038875;28;20049;-48
2022/10/24 09:38:21;;;;;;;8.60;2.13;;;17.00;99.90;;;;;;5039526;28;20485;-45
2022/10/24 09:40:53;;;;;;;6.30;1.35;;;17.00;99.90;;;;;;5040741;28;20040;-48
2022/10/24 09:43:31;;;;;;;8.10;1.38;;;17.00;99.90;;;;;;5042201;28;20154;-46
2022/10/24 09:46:05;;;;;;;6.32;1.40;;;17.10;99.90;;;;;;5040029;28;20049;-46
2022/10/24 09:48:35;;;;;;;7.18;1.40;;;17.10;99.90;;;;;;5040355;28;20134;-44
2022/10/24 09:51:01;;;;;;;8.02;1.23;;;17.00;99.90;;;;;;5040393;28;20037;-47
2022/10/24 09:53:31;;;;;;;5.30;1.40;;;16.90;99.90;;;;;;5038056;28;20087;-47
2022/10/24 09:56:00;;;;;;;7.00;1.20;;;16.90;99.90;;;;;;5039716;28;20140;-43
2022/10/24 09:58:33;;;;;;;7.32;1.60;;;17.00;99.90;;;;;;5038450;28;20084;-46
2022/10/24 10:01:04;;;;;;;6.25;1.30;;;17.00;99.90;;;;;;5037916;28;20106;-46
2022/10/24 10:03:30;;;;;;;7.35;1.08;;;17.00;99.90;;;;;;5038906;28;20040;-43
2022/10/24 10:05:59;;;;;;;5.32;1.10;;;17.20;99.90;;;;;;5037926;28;20045;-47
2022/10/24 10:08:31;;;;;;;7.90;1.10;;;17.20;99.90;;;;;;5035087;28;20047;-45
2022/10/24 10:11:10;;;;;;;9.57;0.90;;;17.00;99.90;;;;;;5039571;28;20099;-44
2022/10/24 10:13:52;;;;;;;5.80;1.33;;;17.10;99.90;;;;;;5032315;28;20063;-45
2022/10/24 10:16:28;;;;;;;5.85;1.30;;;17.30;99.90;;;;;;5044241;28;20140;-47
2022/10/24 10:19:11;;;;;;;5.20;1.10;;;17.50;99.90;;;;;;5048645;28;20508;-45
2022/10/24 10:21:58;;;;;;;7.57;1.73;;;17.80;99.90;;;;;;5038491;28;20500;-44
2022/10/24 10:24:44;;;;;;;6.35;1.45;;;18.00;99.90;;;;;;5039523;28;20033;-46
2022/10/24 10:27:35;;;;;;;6.10;1.27;;;17.90;99.90;;;;;;5039212;28;20043;-45
2022/10/24 10:30:17;;;;;;;5.38;1.13;;;17.60;99.90;;;;;;5038767;28;20477;-46
2022/10/24 10:33:12;;;;;;;6.25;1.33;;;17.40;99.90;;;;;;5039537;28;20440;-46
2022/10/24 10:35:41;;;;;;;6.47;1.40;;;17.50;99.90;;;;;;5037077;28;20045;-44
2022/10/24 10:38:15;;;;;;;4.60;1.23;;;17.40;99.90;;;;;;5039355;28;20072;-44
2022/10/24 10:40:48;;;;;;;6.93;1.17;;;17.20;99.90;;;;;;5038371;28;20124;-46
2022/10/24 10:43:42;;;;;;;5.80;1.07;;;17.30;99.90;;;;;;5037617;28;20041;-45
2022/10/24 10:46:16;;;;;;;7.22;1.38;;;17.50;99.90;;;;;;5045944;28;20052;-45
2022/10/24 10:49:19;;;;;;;3.92;1.00;;;17.30;99.90;;;;;;5046959;28;20195;-46
2022/10/24 10:52:01;;;;;;;4.28;1.10;;;17.20;99.90;;;;;;5044353;28;20124;-47
2022/10/24 10:54:29;;;;;;;5.22;1.15;;;17.30;99.90;;;;;;5049503;28;20040;-50
2022/10/24 10:57:16;;;;;;;6.63;1.38;;;17.30;99.90;;;;;;5049319;28;20476;-46
2022/10/24 11:00:06;;;;;;;9.25;1.40;;;17.30;99.90;;;;;;5051655;28;20528;-44
2022/10/24 11:02:51;;;;;;;6.93;1.50;;;17.30;99.90;;;;;;5053537;28;20075;-49
2022/10/24 11:05:28;;;;;;;7.72;0.95;;;17.30;99.90;;;;;;5053478;28;20045;-46
2022/10/24 11:08:11;;;;;;;5.97;1.02;;;17.40;99.90;;;;;;5052808;28;20083;-45
2022/10/24 11:10:42;;;;;;;7.18;1.33;;;17.60;99.90;;;;;;5052965;28;20131;-44
2022/10/24 11:13:19;;;;;;;6.15;1.05;;;17.70;99.90;;;;;;5052635;28;20037;-46
2022/10/24 11:15:51;;;;;;;5.70;1.20;;;17.70;99.90;;;;;;5053150;28;20116;-45
2022/10/24 11:18:42;;;;;;;6.45;1.23;;;18.00;99.90;;;;;;5052801;28;20029;-48
2022/10/24 11:21:11;;;;;;;7.97;1.30;;;18.30;99.90;;;;;;5053237;28;20167;-48
2022/10/24 11:23:37;;;;;;;4.28;0.80;;;18.30;99.90;;;;;;5051806;28;20041;-47
2022/10/24 11:26:20;;;;;;;7.72;1.20;;;18.10;99.90;;;;;;5052018;28;20052;-45
2022/10/24 11:29:01;;;;;;;5.55;1.20;;;17.90;99.90;;;;;;5053630;28;20041;-46
2022/10/24 11:31:41;;;;;;;7.07;1.20;;;17.80;99.90;;;;;;5052381;28;20041;-46
2022/10/24 11:34:24;;;;;;;5.15;1.10;;;17.60;99.90;;;;;;5052902;28;20037;-46
2022/10/24 11:37:12;;;;;;;7.35;1.48;;;17.60;99.90;;;;;;5052974;28;20051;-47
2022/10/24 11:39:47;;;;;;;6.28;1.38;;;18.00;99.90;;;;;;5051309;28;20056;-48
2022/10/24 11:42:25;;;;;;;6.70;1.27;;;18.30;99.90;;;;;;5051862;28;20041;-45
2022/10/24 11:45:03;;;;;;;7.40;0.90;;;18.40;99.90;;;;;;5052231;28;20071;-49
2022/10/24 11:47:46;;;;;;;6.25;1.20;;;18.30;99.90;;;;;;5050982;28;20143;-47
2022/10/24 11:50:26;;;;;;;10.18;1.58;;;18.10;99.90;;;;;;5052874;28;20044;-43
2022/10/24 11:53:02;;;;;;;7.43;1.30;;;18.20;99.90;;;;;;5052689;28;20032;-46
2022/10/24 11:55:36;;;;;;;6.18;0.98;;;17.90;99.90;;;;;;5051879;28;20029;-45
2022/10/24 11:58:04;;;;;;;6.32;1.10;;;18.00;99.90;;;;;;5052596;28;20049;-45
2022/10/24 12:00:58;;;;;;;6.13;1.17;;;17.90;99.90;;;;;;5051064;28;20040;-45
2022/10/24 12:03:57;;;;;;;7.88;1.23;;;17.70;99.90;;;;;;5035011;28;20136;-46
2022/10/24 12:07:11;;;;;;;5.05;1.20;;;17.50;99.90;;;;;;5051562;28;20055;-48
2022/10/24 12:10:06;;;;;;;5.90;1.10;;;17.80;99.90;;;;;;5049995;28;20076;-45
2022/10/24 12:12:50;;;;;;;6.78;1.10;;;18.20;99.90;;;;;;5051808;28;20041;-47
2022/10/24 12:15:36;;;;;;;8.82;1.20;;;18.40;99.90;;;;;;5052757;28;20052;-44
2022/10/24 12:18:36;;;;;;;6.75;1.00;;;18.60;99.90;;;;;;5049762;28;20053;-43
2022/10/24 12:21:08;;;;;;;7.80;1.38;;;18.70;99.90;;;;;;5050888;28;20053;-45
2022/10/24 12:23:35;;;;;;;5.88;1.10;;;18.90;99.90;;;;;;5051447;28;20049;-47
2022/10/24 12:26:05;;;;;;;6.68;0.90;;;18.60;99.90;;;;;;5040286;28;20051;-48
2022/10/24 12:28:31;;;;;;;5.90;0.90;;;18.40;99.90;;;;;;5042744;28;20037;-45
2022/10/24 12:31:14;;;;;;;5.28;1.30;;;18.10;99.90;;;;;;5043427;28;20068;-46
2022/10/24 12:33:42;;;;;;;4.53;1.00;;;17.90;99.90;;;;;;5042422;28;20087;-47
2022/10/24 12:36:08;;;;;;;6.95;1.33;;;17.70;99.90;;;;;;5041794;28;20041;-43
2022/10/24 12:38:34;;;;;;;7.47;1.05;;;17.70;99.90;;;;;;5041784;28;20037;-44
2022/10/24 12:41:05;;;;;;;5.97;1.30;;;17.70;99.90;;;;;;5041527;28;20036;-45
2022/10/24 12:43:41;;;;;;;5.57;1.10;;;17.60;99.90;;;;;;5041235;28;20037;-45
2022/10/24 12:46:18;;;;;;;5.88;1.00;;;17.60;99.90;;;;;;5039438;28;20057;-46
2022/10/24 12:48:59;;;;;;;5.82;0.95;;;17.60;99.90;;;;;;5039806;28;20061;-46
2022/10/24 12:51:40;;;;;;;5.65;1.10;;;17.50;99.90;;;;;;5039146;28;20435;-43
2022/10/24 12:54:11;;;;;;;6.40;1.05;;;17.50;99.90;;;;;;5039929;28;20033;-44
2022/10/24 12:56:49;;;;;;;6.63;1.10;;;17.50;99.90;;;;;;5036918;28;20041;-45
2022/10/24 12:59:48;;;;;;;6.22;1.20;;;17.50;99.90;;;;;;5039313;28;20106;-48
2022/10/24 13:02:14;;;;;;;6.03;0.98;;;17.40;99.90;;;;;;5038256;28;20106;-44
2022/10/24 13:04:58;;;;;;;3.83;0.60;;;17.30;99.90;;;;;;5039370;28;20069;-45